YPMQ

Details ICAO YPMQ (PQQ)
Name Port Macquarie
Region Australia
Timezone Australia/Sydney (UTC+10.0)
Plans Departing 55
Arriving 32
Stats Elevation 12 ft / 4 m (AMSL)
Location -31.434488° 152.865850°
Runways 2
Magnetic Variation 12.229° E
Sunrise 2018-05-23 20:35:50 UTC / 2018-05-24 06:35:50 Local
Sunset 2018-05-24 06:57:43 UTC / 2018-05-24 16:57:43 Local
Advertisement - Login to hide

Runways

ID Width Length Bearing (true) Bearing (mag) Surface Threshold Offset Overrun Length
03 98 ft / 30 m 5,220 ft / 1,591 m 29.60° 17.37° Asphalt 0 ft / 0 m 0 ft / 0 m
10 203 ft / 62 m 2,496 ft / 761 m 114.30° 102.07° Grass 0 ft / 0 m 0 ft / 0 m
21 98 ft / 30 m 5,220 ft / 1,591 m 209.60° 197.37° Asphalt 0 ft / 0 m 0 ft / 0 m
28 203 ft / 62 m 2,496 ft / 761 m 294.29° 282.06° Grass 0 ft / 0 m 0 ft / 0 m

Map

Weather


0- 5 10 15 20 25 30 35+ Temperature / ° C

Clouds and Precipitation
Forecast for 2018-05-23 12:00 UTC. Updated 6 hours ago

Ground ~20,000 ft ~40,000 ft Winds

METAR

YPMQ 231700Z AUTO 30003KT 9999 // NCD 10/09 Q1022

TAF

Not found

Frequencies

Unicom 122.30 MHz ACTIVATE LIGHTS ONLY MULT
Tower 120.55 MHz BRISBANE CNTR
Unicom 118.10 MHz PORT MACQUARIE MULT
Tower 126.60 MHz BRISBANE CNTR
Warning: Do not use this data for real-world aviation or navigation. No guarantee of current accuracy is given.